createdAt,value
2019-01-04T00:00:24.068Z,1031.62
2019-01-04T00:01:03.062Z,1031.70
2019-01-04T00:02:03.078Z,1031.74
2019-01-04T00:03:03.015Z,1031.73
2019-01-04T00:04:03.123Z,1031.77
2019-01-04T00:05:03.115Z,1031.73
2019-01-04T00:06:03.172Z,1031.74
2019-01-04T00:07:03.006Z,1031.70
2019-01-04T00:08:05.492Z,1031.73
2019-01-04T00:09:02.656Z,1031.68
2019-01-04T00:10:02.185Z,1031.71
2019-01-04T00:11:08.793Z,1031.68
2019-01-04T00:12:02.730Z,1031.67
2019-01-04T00:13:03.086Z,1031.63
2019-01-04T00:14:02.761Z,1031.63
2019-01-04T00:15:02.510Z,1031.55
2019-01-04T00:16:01.853Z,1031.58
2019-01-04T00:17:02.148Z,1031.52
2019-01-04T00:18:02.487Z,1031.54
2019-01-04T00:19:02.493Z,1031.49
2019-01-04T00:20:02.503Z,1031.55
2019-01-04T00:21:02.461Z,1031.53
2019-01-04T00:22:02.463Z,1031.54
2019-01-04T00:23:02.429Z,1031.50
2019-01-04T00:24:10.995Z,1031.47
2019-01-04T00:25:08.365Z,1031.44
2019-01-04T00:26:02.175Z,1031.43
2019-01-04T00:27:02.187Z,1031.45
2019-01-04T00:28:02.619Z,1031.48
2019-01-04T00:29:02.417Z,1031.42
2019-01-04T00:30:02.391Z,1031.44
2019-01-04T00:31:02.387Z,1031.45
2019-01-04T00:32:02.110Z,1031.51
2019-01-04T00:33:02.588Z,1031.49
2019-01-04T00:34:02.474Z,1031.45
2019-01-04T00:35:02.544Z,1031.47
2019-01-04T00:36:02.391Z,1031.40
2019-01-04T00:37:02.411Z,1031.42
2019-01-04T00:38:02.435Z,1031.46
2019-01-04T00:39:02.441Z,1031.42
2019-01-04T00:40:02.382Z,1031.44
2019-01-04T00:41:02.420Z,1031.52
2019-01-04T00:42:02.347Z,1031.44
2019-01-04T00:43:02.145Z,1031.38
2019-01-04T00:44:02.847Z,1031.37
2019-01-04T00:45:02.640Z,1031.39
2019-01-04T00:46:02.847Z,1031.36
2019-01-04T00:47:02.778Z,1031.43
2019-01-04T00:48:30.195Z,1031.45
2019-01-04T00:50:17.350Z,1031.43
2019-01-04T00:51:17.394Z,1031.37
2019-01-04T00:53:11.455Z,1031.40
2019-01-04T00:54:11.864Z,1031.39
2019-01-04T00:55:12.061Z,1031.42
2019-01-04T00:56:11.985Z,1031.44
2019-01-04T00:57:11.928Z,1031.46
2019-01-04T00:58:11.974Z,1031.44
2019-01-04T00:59:11.989Z,1031.41
2019-01-04T01:00:11.958Z,1031.35
2019-01-04T01:01:11.992Z,1031.37
2019-01-04T01:02:11.942Z,1031.37
2019-01-04T01:03:12.007Z,1031.31
2019-01-04T01:04:12.035Z,1031.34
2019-01-04T01:05:11.915Z,1031.32
2019-01-04T01:06:11.960Z,1031.39
2019-01-04T01:07:11.955Z,1031.38
2019-01-04T01:08:11.955Z,1031.42
2019-01-04T01:09:11.992Z,1031.47
2019-01-04T01:10:11.979Z,1031.49
2019-01-04T01:11:11.942Z,1031.54
2019-01-04T01:12:12.013Z,1031.57
2019-01-04T01:13:11.929Z,1031.57
2019-01-04T01:14:12.032Z,1031.59
2019-01-04T01:15:12.033Z,1031.58
2019-01-04T01:16:12.027Z,1031.65
2019-01-04T01:17:12.011Z,1031.59
2019-01-04T01:18:11.363Z,1031.66
2019-01-04T01:19:11.425Z,1031.63
2019-01-04T01:20:11.782Z,1031.62
2019-01-04T01:21:13.509Z,1031.66
2019-01-04T01:22:11.431Z,1031.66
2019-01-04T01:24:59.127Z,1031.67
2019-01-04T01:25:59.077Z,1031.62
2019-01-04T01:27:53.715Z,1031.61
2019-01-04T01:28:54.208Z,1031.58
2019-01-04T01:30:48.265Z,1031.64
2019-01-04T01:31:49.327Z,1031.68
2019-01-04T01:33:42.578Z,1031.70
2019-01-04T01:34:42.886Z,1031.67
2019-01-04T01:36:37.546Z,1031.69
2019-01-04T01:37:37.579Z,1031.72
2019-01-04T01:39:31.790Z,1031.76
2019-01-04T01:40:32.092Z,1031.82
2019-01-04T01:42:27.075Z,1031.81
2019-01-04T01:43:27.229Z,1031.88
2019-01-04T01:45:21.070Z,1031.79
2019-01-04T01:46:21.431Z,1031.72
2019-01-04T01:48:15.997Z,1031.71
2019-01-04T01:49:16.091Z,1031.71
2019-01-04T01:51:10.667Z,1031.60
2019-01-04T01:52:11.158Z,1031.57
2019-01-04T01:54:05.979Z,1031.54
2019-01-04T01:55:06.126Z,1031.58
2019-01-04T01:56:59.651Z,1031.49
2019-01-04T01:58:00.157Z,1031.42
2019-01-04T01:59:54.824Z,1031.51
2019-01-04T02:00:54.870Z,1031.48
2019-01-04T02:02:49.302Z,1031.43
2019-01-04T02:03:49.455Z,1031.45
2019-01-04T02:05:44.562Z,1031.37
2019-01-04T02:06:44.571Z,1031.41
2019-01-04T02:08:38.494Z,1031.43
2019-01-04T02:09:38.652Z,1031.44
2019-01-04T02:11:33.392Z,1031.46
2019-01-04T02:12:33.402Z,1031.45
2019-01-04T02:13:33.711Z,1031.45
2019-01-04T02:14:33.292Z,1031.42
2019-01-04T02:15:33.770Z,1031.47
2019-01-04T02:16:32.891Z,1031.47
2019-01-04T02:17:33.279Z,1031.48
2019-01-04T02:18:33.284Z,1031.48
2019-01-04T02:19:33.192Z,1031.51
2019-01-04T02:20:35.679Z,1031.52
2019-01-04T02:21:32.847Z,1031.48
2019-01-04T02:22:33.323Z,1031.45
2019-01-04T02:23:33.794Z,1031.46
2019-01-04T02:24:33.292Z,1031.48
2019-01-04T02:25:33.895Z,1031.39
2019-01-04T02:26:32.938Z,1031.44
2019-01-04T02:27:33.823Z,1031.46
2019-01-04T02:28:33.746Z,1031.41
2019-01-04T02:29:33.248Z,1031.44
2019-01-04T02:30:33.788Z,1031.41
2019-01-04T02:31:33.892Z,1031.46
2019-01-04T02:32:33.784Z,1031.47
2019-01-04T02:33:33.814Z,1031.52
2019-01-04T02:34:33.766Z,1031.49
2019-01-04T02:35:33.591Z,1031.47
2019-01-04T02:36:39.640Z,1031.48
2019-01-04T02:37:33.342Z,1031.48
2019-01-04T02:38:33.358Z,1031.46
2019-01-04T02:39:35.298Z,1031.47
2019-01-04T02:40:39.272Z,1031.45
2019-01-04T02:41:33.375Z,1031.45
2019-01-04T02:42:33.481Z,1031.45
2019-01-04T02:43:33.193Z,1031.46
2019-01-04T02:44:33.373Z,1031.47
2019-01-04T02:45:33.426Z,1031.45
2019-01-04T02:46:33.344Z,1031.48
2019-01-04T02:47:33.432Z,1031.53
2019-01-04T02:48:32.883Z,1031.54
2019-01-04T02:49:33.420Z,1031.57
2019-01-04T02:50:33.417Z,1031.49
2019-01-04T02:51:33.114Z,1031.53
2019-01-04T02:52:33.818Z,1031.57
2019-01-04T02:53:33.098Z,1031.58
2019-01-04T02:54:33.088Z,1031.60
2019-01-04T02:55:33.165Z,1031.56
2019-01-04T02:56:33.256Z,1031.57
2019-01-04T02:57:33.332Z,1031.54
2019-01-04T02:58:33.268Z,1031.59
2019-01-04T02:59:47.318Z,1031.61
2019-01-04T03:00:35.367Z,1031.55
2019-01-04T03:01:33.357Z,1031.60
2019-01-04T03:02:33.277Z,1031.62
2019-01-04T03:03:33.352Z,1031.58
2019-01-04T03:04:34.340Z,1031.61
2019-01-04T03:05:33.434Z,1031.64
2019-01-04T03:06:33.346Z,1031.65
2019-01-04T03:07:33.396Z,1031.61
2019-01-04T03:08:32.763Z,1031.62
2019-01-04T03:09:33.386Z,1031.62
2019-01-04T03:10:33.400Z,1031.53
2019-01-04T03:11:33.315Z,1031.51
2019-01-04T03:12:33.343Z,1031.51
2019-01-04T03:13:33.024Z,1031.50
2019-01-04T03:14:33.140Z,1031.53
2019-01-04T03:15:33.109Z,1031.53
2019-01-04T03:16:33.142Z,1031.51
2019-01-04T03:17:33.143Z,1031.48
2019-01-04T03:18:33.182Z,1031.49
2019-01-04T03:19:32.549Z,1031.48
2019-01-04T03:20:33.132Z,1031.42
2019-01-04T03:21:32.669Z,1031.41
2019-01-04T03:22:32.700Z,1031.40
2019-01-04T03:23:34.292Z,1031.41
2019-01-04T03:24:35.225Z,1031.39
2019-01-04T03:25:33.299Z,1031.41
2019-01-04T03:26:33.295Z,1031.37
2019-01-04T03:27:33.300Z,1031.35
2019-01-04T03:28:33.360Z,1031.40
2019-01-04T03:29:33.191Z,1031.32
2019-01-04T03:30:34.674Z,1031.25
2019-01-04T03:31:34.742Z,1031.24
2019-01-04T03:32:32.929Z,1031.21
2019-01-04T03:33:32.888Z,1031.24
2019-01-04T03:34:32.888Z,1031.16
2019-01-04T03:35:32.885Z,1031.12
2019-01-04T03:36:33.361Z,1031.09
2019-01-04T03:37:32.469Z,1031.04
2019-01-04T03:38:32.859Z,1031.06
2019-01-04T03:39:34.903Z,1031.03
2019-01-04T03:40:32.882Z,1031.08
2019-01-04T03:41:32.848Z,1031.05
2019-01-04T03:42:32.784Z,1031.02
2019-01-04T03:43:32.843Z,1031.01
2019-01-04T03:44:32.841Z,1031.01
2019-01-04T03:45:32.795Z,1030.91
2019-01-04T03:46:32.940Z,1030.88
2019-01-04T03:47:32.900Z,1030.87
2019-01-04T03:48:32.427Z,1030.85
2019-01-04T03:49:32.812Z,1030.82
2019-01-04T03:50:32.833Z,1030.87
2019-01-04T03:51:32.747Z,1030.83
2019-01-04T03:52:32.626Z,1030.78
2019-01-04T03:53:32.717Z,1030.80
2019-01-04T03:54:33.090Z,1030.82
2019-01-04T03:55:32.736Z,1030.81
2019-01-04T03:56:32.694Z,1030.91
2019-01-04T03:57:32.410Z,1030.86
2019-01-04T03:58:32.760Z,1030.94
2019-01-04T03:59:32.802Z,1030.94
2019-01-04T04:00:32.737Z,1030.94
2019-01-04T04:01:32.759Z,1030.97
2019-01-04T04:02:32.759Z,1030.97
2019-01-04T04:03:38.698Z,1030.97
2019-01-04T04:04:32.702Z,1030.97
2019-01-04T04:05:34.659Z,1030.97
2019-01-04T04:06:32.926Z,1030.94
2019-01-04T04:07:32.733Z,1030.96
2019-01-04T04:08:32.631Z,1030.94
2019-01-04T04:09:32.639Z,1030.88
2019-01-04T04:10:32.649Z,1030.81
2019-01-04T04:11:32.140Z,1030.83
2019-01-04T04:12:34.623Z,1030.79
2019-01-04T04:13:32.731Z,1030.79
2019-01-04T04:14:32.591Z,1030.82
2019-01-04T04:15:32.590Z,1030.79
2019-01-04T04:16:32.663Z,1030.75
2019-01-04T04:17:32.645Z,1030.75
2019-01-04T04:18:32.096Z,1030.79
2019-01-04T04:19:32.656Z,1030.83
2019-01-04T04:20:32.627Z,1030.89
2019-01-04T04:21:32.588Z,1030.90
2019-01-04T04:22:32.625Z,1030.87
2019-01-04T04:23:32.672Z,1030.81
2019-01-04T04:24:38.891Z,1030.84
2019-01-04T04:25:32.402Z,1030.77
2019-01-04T04:26:34.120Z,1030.77
2019-01-04T04:27:32.311Z,1030.82
2019-01-04T04:28:32.306Z,1030.79
2019-01-04T04:29:32.297Z,1030.76
2019-01-04T04:30:32.328Z,1030.71
2019-01-04T04:31:32.319Z,1030.72
2019-01-04T04:32:32.217Z,1030.68
2019-01-04T04:33:32.366Z,1030.68
2019-01-04T04:34:32.203Z,1030.67
2019-01-04T04:35:32.203Z,1030.66
2019-01-04T04:36:34.311Z,1030.59
2019-01-04T04:37:32.335Z,1030.59
2019-01-04T04:38:38.231Z,1030.57
2019-01-04T04:39:32.315Z,1030.57
2019-01-04T04:40:32.340Z,1030.59
2019-01-04T04:41:33.376Z,1030.60
2019-01-04T04:42:32.176Z,1030.54
2019-01-04T04:43:38.339Z,1030.57
2019-01-04T04:44:32.335Z,1030.52
2019-01-04T04:45:32.221Z,1030.50
2019-01-04T04:46:32.331Z,1030.58
2019-01-04T04:47:32.386Z,1030.53
2019-01-04T04:48:32.507Z,1030.61
2019-01-04T04:49:32.477Z,1030.63
2019-01-04T04:50:32.229Z,1030.69
2019-01-04T04:51:32.355Z,1030.70
2019-01-04T04:52:32.100Z,1030.70
2019-01-04T04:53:32.124Z,1030.70
2019-01-04T04:54:32.490Z,1030.67
2019-01-04T04:55:32.158Z,1030.72
2019-01-04T04:56:32.150Z,1030.67
2019-01-04T04:57:32.256Z,1030.65
2019-01-04T04:58:31.740Z,1030.71
2019-01-04T04:59:32.462Z,1030.74
2019-01-04T05:00:34.452Z,1030.70
2019-01-04T05:01:32.409Z,1030.77
2019-01-04T05:02:32.455Z,1030.79
2019-01-04T05:03:32.864Z,1030.75
2019-01-04T05:04:32.269Z,1030.76
2019-01-04T05:05:32.254Z,1030.76
2019-01-04T05:06:32.553Z,1030.78
2019-01-04T05:07:32.489Z,1030.78
2019-01-04T05:08:32.884Z,1030.76
2019-01-04T05:09:32.402Z,1030.74
2019-01-04T05:10:32.219Z,1030.70
2019-01-04T05:11:32.200Z,1030.71
2019-01-04T05:12:32.310Z,1030.69
2019-01-04T05:13:31.600Z,1030.66
2019-01-04T05:14:32.249Z,1030.66
2019-01-04T05:15:32.231Z,1030.70
2019-01-04T05:16:32.175Z,1030.68
2019-01-04T05:17:32.378Z,1030.66
2019-01-04T05:18:32.345Z,1030.68
2019-01-04T05:19:32.399Z,1030.60
2019-01-04T05:20:31.937Z,1030.63
2019-01-04T05:21:32.598Z,1030.61
2019-01-04T05:22:31.948Z,1030.56
2019-01-04T05:23:32.504Z,1030.54
2019-01-04T05:24:32.535Z,1030.54
2019-01-04T05:25:33.976Z,1030.48
2019-01-04T05:26:31.930Z,1030.52
2019-01-04T05:27:31.957Z,1030.52
2019-01-04T05:28:31.907Z,1030.44
2019-01-04T05:29:32.335Z,1030.43
2019-01-04T05:30:31.803Z,1030.41
2019-01-04T05:31:31.907Z,1030.38
2019-01-04T05:32:31.938Z,1030.37
2019-01-04T05:33:31.949Z,1030.33
2019-01-04T05:34:31.825Z,1030.29
2019-01-04T05:35:32.378Z,1030.30
2019-01-04T05:36:31.897Z,1030.27
2019-01-04T05:37:31.990Z,1030.26
2019-01-04T05:38:31.931Z,1030.27
2019-01-04T05:39:31.933Z,1030.30
2019-01-04T05:40:31.935Z,1030.32
2019-01-04T05:41:30.965Z,1030.37
2019-01-04T05:42:32.433Z,1030.35
2019-01-04T05:43:31.942Z,1030.34
2019-01-04T05:44:32.958Z,1030.29
2019-01-04T05:45:31.940Z,1030.28
2019-01-04T05:46:31.929Z,1030.22
2019-01-04T05:47:32.354Z,1030.22
2019-01-04T05:48:31.940Z,1030.22
2019-01-04T05:49:31.440Z,1030.24
2019-01-04T05:50:31.967Z,1030.25
2019-01-04T05:52:31.862Z,1030.20
2019-01-04T05:53:31.895Z,1030.22
2019-01-04T05:54:31.967Z,1030.21
2019-01-04T05:55:32.394Z,1030.27
2019-01-04T05:56:32.092Z,1030.31
2019-01-04T05:57:31.876Z,1030.39
2019-01-04T05:58:32.071Z,1030.35
2019-01-04T05:59:31.955Z,1030.32
2019-01-04T06:00:31.940Z,1030.31
2019-01-04T06:01:32.363Z,1030.29
2019-01-04T06:02:31.679Z,1030.29
2019-01-04T06:03:31.679Z,1030.26
2019-01-04T06:04:31.987Z,1030.31
2019-01-04T06:05:33.573Z,1030.44
2019-01-04T06:06:31.928Z,1030.41
2019-01-04T06:07:31.435Z,1030.42
2019-01-04T06:08:32.383Z,1030.35
2019-01-04T06:09:31.689Z,1030.33
2019-01-04T06:10:31.933Z,1030.20
2019-01-04T06:11:32.226Z,1030.26
2019-01-04T06:12:34.378Z,1030.23
2019-01-04T06:13:31.708Z,1030.27
2019-01-04T06:14:31.706Z,1030.21
2019-01-04T06:15:33.385Z,1030.21
2019-01-04T06:16:33.160Z,1030.18
2019-01-04T06:17:33.210Z,1030.25
2019-01-04T06:18:31.365Z,1030.28
2019-01-04T06:19:31.520Z,1030.30
2019-01-04T06:20:31.314Z,1030.32
2019-01-04T06:21:31.448Z,1030.33
2019-01-04T06:22:31.400Z,1030.32
2019-01-04T06:23:31.430Z,1030.27
2019-01-04T06:24:32.158Z,1030.32
2019-01-04T06:25:31.885Z,1030.26
2019-01-04T06:26:31.403Z,1030.27
2019-01-04T06:27:31.356Z,1030.31
2019-01-04T06:28:32.041Z,1030.28
2019-01-04T06:29:31.871Z,1030.29
2019-01-04T06:30:33.220Z,1030.32
2019-01-04T06:31:31.360Z,1030.33
2019-01-04T06:32:31.055Z,1030.37
2019-01-04T06:33:31.490Z,1030.37
2019-01-04T06:34:31.737Z,1030.33
2019-01-04T06:35:31.668Z,1030.37
2019-01-04T06:36:31.147Z,1030.35
2019-01-04T06:37:30.983Z,1030.37
2019-01-04T06:38:31.167Z,1030.35
2019-01-04T06:39:31.184Z,1030.31
2019-01-04T06:40:31.085Z,1030.34
2019-01-04T06:41:31.228Z,1030.28
2019-01-04T06:42:31.198Z,1030.36
2019-01-04T06:43:31.864Z,1030.32
2019-01-04T06:44:31.081Z,1030.29
2019-01-04T06:45:30.583Z,1030.26
2019-01-04T06:46:31.445Z,1030.26
2019-01-04T06:47:31.480Z,1030.21
2019-01-04T06:48:31.880Z,1030.21
2019-01-04T06:49:33.212Z,1030.22
2019-01-04T06:50:31.119Z,1030.21
2019-01-04T06:51:31.438Z,1030.18
2019-01-04T06:52:31.854Z,1030.19
2019-01-04T06:53:31.856Z,1030.16
2019-01-04T06:54:33.176Z,1030.24
2019-01-04T06:55:31.208Z,1030.23
2019-01-04T06:56:31.907Z,1030.21
2019-01-04T06:57:31.059Z,1030.21
2019-01-04T06:58:31.675Z,1030.26
2019-01-04T06:59:30.990Z,1030.25
2019-01-04T07:00:32.284Z,1030.28
2019-01-04T07:01:30.996Z,1030.30
2019-01-04T07:02:30.732Z,1030.39
2019-01-04T07:03:31.119Z,1030.42
2019-01-04T07:04:37.442Z,1030.47
2019-01-04T07:05:31.894Z,1030.48
2019-01-04T07:06:30.956Z,1030.50
2019-01-04T07:07:31.273Z,1030.49
2019-01-04T07:08:32.209Z,1030.51
2019-01-04T07:09:31.474Z,1030.49
2019-01-04T07:10:31.859Z,1030.48
2019-01-04T07:11:32.585Z,1030.47
2019-01-04T07:12:30.651Z,1030.46
2019-01-04T07:13:31.380Z,1030.45
2019-01-04T07:14:31.577Z,1030.35
2019-01-04T07:15:32.942Z,1030.36
2019-01-04T07:16:32.928Z,1030.39
2019-01-04T07:17:31.359Z,1030.38
2019-01-04T07:18:30.676Z,1030.37
2019-01-04T07:19:30.822Z,1030.41
2019-01-04T07:20:30.620Z,1030.39
2019-01-04T07:21:30.883Z,1030.39
2019-01-04T07:22:31.359Z,1030.36
2019-01-04T07:23:30.627Z,1030.35
2019-01-04T07:24:30.860Z,1030.35
2019-01-04T07:25:30.905Z,1030.35
2019-01-04T07:26:31.303Z,1030.34
2019-01-04T07:27:30.949Z,1030.31
2019-01-04T07:28:31.181Z,1030.33
2019-01-04T07:29:30.546Z,1030.33
2019-01-04T07:30:31.049Z,1030.34
2019-01-04T07:31:30.934Z,1030.43
2019-01-04T07:32:30.754Z,1030.46
2019-01-04T07:33:30.671Z,1030.44
2019-01-04T07:34:30.811Z,1030.46
2019-01-04T07:35:30.812Z,1030.47
2019-01-04T07:36:30.901Z,1030.48
2019-01-04T07:37:31.365Z,1030.47
2019-01-04T07:38:31.356Z,1030.43
2019-01-04T07:39:30.552Z,1030.47
2019-01-04T07:40:30.966Z,1030.47
2019-01-04T07:41:30.757Z,1030.44
2019-01-04T07:42:30.680Z,1030.44
2019-01-04T07:43:30.746Z,1030.42
2019-01-04T07:44:30.767Z,1030.43
2019-01-04T07:45:30.904Z,1030.47
2019-01-04T07:46:30.896Z,1030.47
2019-01-04T07:47:31.047Z,1030.44
2019-01-04T07:48:30.568Z,1030.42
2019-01-04T07:49:30.145Z,1030.39
2019-01-04T07:50:31.035Z,1030.38
2019-01-04T07:51:30.869Z,1030.31
2019-01-04T07:52:30.932Z,1030.34
2019-01-04T07:53:30.960Z,1030.33
2019-01-04T07:54:30.701Z,1030.27
2019-01-04T07:55:30.937Z,1030.30
2019-01-04T07:56:30.758Z,1030.27
2019-01-04T07:57:31.383Z,1030.29
2019-01-04T07:58:30.712Z,1030.26
2019-01-04T07:59:30.768Z,1030.29
2019-01-04T08:00:30.602Z,1030.27
2019-01-04T08:01:30.310Z,1030.29
2019-01-04T08:02:30.967Z,1030.27
2019-01-04T08:03:31.069Z,1030.27
2019-01-04T08:04:30.764Z,1030.28
2019-01-04T08:05:30.219Z,1030.30
2019-01-04T08:06:32.401Z,1030.22
2019-01-04T08:07:30.437Z,1030.24
2019-01-04T08:08:32.439Z,1030.21
2019-01-04T08:09:32.423Z,1030.23
2019-01-04T08:10:30.466Z,1030.29
2019-01-04T08:11:30.458Z,1030.28
2019-01-04T08:12:30.860Z,1030.27
2019-01-04T08:13:30.951Z,1030.30
2019-01-04T08:14:30.891Z,1030.28
2019-01-04T08:15:30.154Z,1030.26
2019-01-04T08:16:30.149Z,1030.24
2019-01-04T08:17:30.854Z,1030.17
2019-01-04T08:18:32.119Z,1030.15
2019-01-04T08:19:30.139Z,1030.15
2019-01-04T08:20:30.070Z,1030.11
2019-01-04T08:21:30.906Z,1030.15
2019-01-04T08:22:30.200Z,1030.13
2019-01-04T08:23:30.881Z,1030.13
2019-01-04T08:24:30.371Z,1030.11
2019-01-04T08:25:30.899Z,1030.14
2019-01-04T08:26:30.063Z,1030.16
2019-01-04T08:27:30.409Z,1030.18
2019-01-04T08:28:30.139Z,1030.14
2019-01-04T08:29:30.743Z,1030.13
2019-01-04T08:30:30.473Z,1030.15
2019-01-04T08:31:30.456Z,1030.08
2019-01-04T08:32:30.448Z,1030.16
2019-01-04T08:33:30.199Z,1030.16
2019-01-04T08:34:30.393Z,1030.15
2019-01-04T08:35:30.036Z,1030.14
2019-01-04T08:36:30.840Z,1030.14
2019-01-04T08:37:30.893Z,1030.11
2019-01-04T08:38:31.907Z,1030.13
2019-01-04T08:39:29.990Z,1030.09
2019-01-04T08:40:30.166Z,1030.15
2019-01-04T08:41:30.438Z,1030.14
2019-01-04T08:42:30.095Z,1030.08
2019-01-04T08:43:30.710Z,1030.11
2019-01-04T08:44:30.435Z,1030.14
2019-01-04T08:45:30.455Z,1030.19
2019-01-04T08:46:30.493Z,1030.17
2019-01-04T08:47:29.959Z,1030.19
2019-01-04T08:48:30.223Z,1030.23
2019-01-04T08:49:29.940Z,1030.15
2019-01-04T08:50:30.344Z,1030.17
2019-01-04T08:51:30.058Z,1030.18
2019-01-04T08:52:30.361Z,1030.14
2019-01-04T08:53:31.140Z,1030.17
2019-01-04T08:54:32.248Z,1030.12
2019-01-04T08:55:30.109Z,1030.10
2019-01-04T08:56:30.879Z,1030.10
2019-01-04T08:57:30.101Z,1030.07
2019-01-04T08:58:30.837Z,1030.05
2019-01-04T08:59:30.033Z,1030.02
2019-01-04T09:00:30.061Z,1030.05
2019-01-04T09:01:30.367Z,1030.06
2019-01-04T09:02:30.527Z,1030.03
2019-01-04T09:03:30.459Z,1030.03
2019-01-04T09:04:30.900Z,1029.94
2019-01-04T09:05:29.769Z,1030.00
2019-01-04T09:06:29.805Z,1030.02
2019-01-04T09:07:30.133Z,1029.97
2019-01-04T09:08:29.471Z,1029.98
2019-01-04T09:09:29.999Z,1029.96
2019-01-04T09:10:30.403Z,1029.96
2019-01-04T09:11:32.148Z,1029.98
2019-01-04T09:12:32.358Z,1029.98
2019-01-04T09:13:30.381Z,1029.91
2019-01-04T09:14:29.407Z,1029.87
2019-01-04T09:15:31.624Z,1029.91
2019-01-04T09:16:31.343Z,1029.93
2019-01-04T09:17:29.697Z,1029.85
2019-01-04T09:18:29.731Z,1029.88
2019-01-04T09:19:29.353Z,1029.86
2019-01-04T09:20:29.766Z,1029.81
2019-01-04T09:21:29.652Z,1029.84
2019-01-04T09:22:30.378Z,1029.79
2019-01-04T09:23:29.951Z,1029.73
2019-01-04T09:24:29.966Z,1029.79
2019-01-04T09:25:29.950Z,1029.73
2019-01-04T09:26:29.935Z,1029.76
2019-01-04T09:27:29.939Z,1029.78
2019-01-04T09:28:29.988Z,1029.79
2019-01-04T09:29:30.006Z,1029.81
2019-01-04T09:30:30.083Z,1029.70
2019-01-04T09:31:30.471Z,1029.75
2019-01-04T09:32:30.403Z,1029.70
2019-01-04T09:33:29.580Z,1029.70
2019-01-04T09:34:29.619Z,1029.68
2019-01-04T09:35:29.775Z,1029.64
2019-01-04T09:36:31.991Z,1029.66
2019-01-04T09:37:30.076Z,1029.63
2019-01-04T09:38:29.601Z,1029.68
2019-01-04T09:39:29.781Z,1029.69
2019-01-04T09:40:29.940Z,1029.72
2019-01-04T09:41:30.346Z,1029.67
2019-01-04T09:42:29.206Z,1029.62
2019-01-04T09:43:29.496Z,1029.59
2019-01-04T09:44:29.593Z,1029.54
2019-01-04T09:45:29.653Z,1029.59
2019-01-04T09:46:31.145Z,1029.56
2019-01-04T09:47:29.990Z,1029.58
2019-01-04T09:48:30.065Z,1029.57
2019-01-04T09:49:29.972Z,1029.64
2019-01-04T09:50:29.648Z,1029.64
2019-01-04T09:51:30.005Z,1029.59
2019-01-04T09:52:29.463Z,1029.59
2019-01-04T09:53:29.896Z,1029.52
2019-01-04T09:54:29.945Z,1029.47
2019-01-04T09:55:29.639Z,1029.49
2019-01-04T09:56:30.069Z,1029.49
2019-01-04T09:57:29.942Z,1029.47
2019-01-04T09:58:29.963Z,1029.43
2019-01-04T09:59:30.051Z,1029.44
2019-01-04T10:00:29.675Z,1029.46
2019-01-04T10:01:29.964Z,1029.40
2019-01-04T10:02:30.015Z,1029.42
2019-01-04T10:03:29.975Z,1029.44
2019-01-04T10:04:29.525Z,1029.38
2019-01-04T10:05:29.661Z,1029.34
2019-01-04T10:06:31.382Z,1029.30
2019-01-04T10:07:30.021Z,1029.36
2019-01-04T10:08:29.811Z,1029.29
2019-01-04T10:09:32.239Z,1029.36
2019-01-04T10:10:31.329Z,1029.37
2019-01-04T10:11:29.853Z,1029.36
2019-01-04T10:12:32.478Z,1029.37
2019-01-04T10:13:29.257Z,1029.34
2019-01-04T10:14:29.543Z,1029.34
2019-01-04T10:15:29.318Z,1029.33
2019-01-04T10:16:29.780Z,1029.27
2019-01-04T10:17:29.498Z,1029.28
2019-01-04T10:18:29.443Z,1029.27
2019-01-04T10:19:31.398Z,1029.33
2019-01-04T10:20:29.721Z,1029.28
2019-01-04T10:21:29.465Z,1029.26
2019-01-04T10:22:30.494Z,1029.32
2019-01-04T10:23:29.193Z,1029.28
2019-01-04T10:24:29.208Z,1029.27
2019-01-04T10:25:30.176Z,1029.29
2019-01-04T10:26:29.460Z,1029.27
2019-01-04T10:27:29.282Z,1029.25
2019-01-04T10:28:29.418Z,1029.27
2019-01-04T10:29:29.198Z,1029.21
2019-01-04T10:30:29.322Z,1029.17
2019-01-04T10:31:29.272Z,1029.20
2019-01-04T10:32:29.415Z,1029.19
2019-01-04T10:33:29.897Z,1029.21
2019-01-04T10:34:29.506Z,1029.17
2019-01-04T10:35:30.677Z,1029.15
2019-01-04T10:36:29.481Z,1029.12
2019-01-04T10:37:29.911Z,1029.12
2019-01-04T10:38:29.532Z,1029.09
2019-01-04T10:39:29.486Z,1029.04
2019-01-04T10:40:29.495Z,1029.07
2019-01-04T10:41:31.779Z,1028.99
2019-01-04T10:43:29.480Z,1029.13
2019-01-04T10:44:29.478Z,1029.07
2019-01-04T10:45:29.664Z,1029.05
2019-01-04T10:46:29.462Z,1029.06
2019-01-04T10:47:29.875Z,1029.01
2019-01-04T10:48:29.117Z,1029.03
2019-01-04T10:49:31.906Z,1028.96
2019-01-04T10:50:29.104Z,1028.95
2019-01-04T10:51:28.786Z,1028.91
2019-01-04T10:52:29.077Z,1028.91
2019-01-04T10:53:29.904Z,1028.85
2019-01-04T10:54:28.611Z,1028.88
2019-01-04T10:55:29.503Z,1028.85
2019-01-04T10:56:29.473Z,1028.89
2019-01-04T10:57:29.568Z,1028.78
2019-01-04T10:58:31.464Z,1028.78
2019-01-04T10:59:29.485Z,1028.69
2019-01-04T11:00:29.956Z,1028.66
2019-01-04T11:01:29.419Z,1028.78
2019-01-04T11:02:29.496Z,1028.72
2019-01-04T11:03:29.890Z,1028.66
2019-01-04T11:04:29.477Z,1028.68
2019-01-04T11:05:29.912Z,1028.67
2019-01-04T11:06:29.574Z,1028.64
2019-01-04T11:07:29.533Z,1028.67
2019-01-04T11:08:31.440Z,1028.66
2019-01-04T11:09:29.493Z,1028.71
2019-01-04T11:10:29.488Z,1028.79
2019-01-04T11:11:29.453Z,1028.75
2019-01-04T11:12:29.575Z,1028.75
2019-01-04T11:13:29.910Z,1028.76
2019-01-04T11:14:29.348Z,1028.69
2019-01-04T11:15:28.922Z,1028.68
2019-01-04T11:16:30.608Z,1028.64
2019-01-04T11:17:30.452Z,1028.59
2019-01-04T11:18:29.429Z,1028.51
2019-01-04T11:19:28.661Z,1028.56
2019-01-04T11:22:01.968Z,1028.42
2019-01-04T11:23:02.595Z,1028.37
2019-01-04T11:24:57.154Z,1028.34
2019-01-04T11:27:12.403Z,1028.33
2019-01-04T11:28:11.110Z,1028.30
2019-01-04T11:30:05.972Z,1028.27
2019-01-04T11:31:06.505Z,1028.21
2019-01-04T11:33:00.786Z,1028.20
2019-01-04T11:34:01.176Z,1028.15
2019-01-04T11:35:55.295Z,1028.12
2019-01-04T11:36:55.302Z,1028.19
2019-01-04T11:37:55.876Z,1028.12
2019-01-04T11:38:55.345Z,1028.18
2019-01-04T11:39:55.837Z,1028.15
2019-01-04T11:40:55.097Z,1028.16
2019-01-04T11:41:55.779Z,1028.10
2019-01-04T11:43:55.155Z,1028.11
2019-01-04T11:44:56.270Z,1028.12
2019-01-04T11:45:55.079Z,1028.15
2019-01-04T11:46:55.428Z,1028.20
2019-01-04T11:47:56.300Z,1028.25
2019-01-04T11:48:54.952Z,1028.24
2019-01-04T11:49:55.036Z,1028.33
2019-01-04T11:50:54.995Z,1028.36
2019-01-04T11:51:55.820Z,1028.35
2019-01-04T11:52:55.789Z,1028.35
2019-01-04T11:53:55.351Z,1028.38
2019-01-04T11:55:30.819Z,1028.34
2019-01-04T11:55:54.533Z,1028.35
2019-01-04T11:56:55.339Z,1028.37
2019-01-04T11:58:17.285Z,1028.27
2019-01-04T11:58:55.811Z,1028.30
2019-01-04T11:59:56.234Z,1028.21
2019-01-04T12:00:54.872Z,1028.13
2019-01-04T12:01:55.863Z,1028.08
2019-01-04T12:02:55.230Z,1028.07
2019-01-04T12:03:56.079Z,1028.06
2019-01-04T12:04:55.771Z,1027.93
2019-01-04T12:05:55.925Z,1027.99
2019-01-04T12:08:28.493Z,1028.05
2019-01-04T12:09:29.419Z,1027.97
2019-01-04T12:11:24.554Z,1027.97
2019-01-04T12:12:25.107Z,1028.00
2019-01-04T12:14:19.195Z,1027.90
2019-01-04T12:15:19.202Z,1027.88
2019-01-04T12:17:13.477Z,1027.85
2019-01-04T12:18:13.456Z,1027.78
2019-01-04T12:20:08.100Z,1027.76
2019-01-04T12:21:08.549Z,1027.77
2019-01-04T12:23:03.154Z,1027.74
2019-01-04T12:24:03.174Z,1027.61
2019-01-04T12:25:57.444Z,1027.54
2019-01-04T12:26:55.640Z,1027.48
2019-01-04T12:28:51.967Z,1027.52
2019-01-04T12:29:52.574Z,1027.52
2019-01-04T12:31:47.100Z,1027.56
2019-01-04T12:32:46.731Z,1027.55
2019-01-04T12:34:41.330Z,1027.57
2019-01-04T12:35:42.129Z,1027.55
2019-01-04T12:37:36.022Z,1027.44
2019-01-04T12:38:36.298Z,1027.43
2019-01-04T12:40:30.538Z,1027.43
2019-01-04T12:41:30.836Z,1027.39
2019-01-04T12:43:25.644Z,1027.39
2019-01-04T12:44:26.215Z,1027.38
2019-01-04T12:46:20.355Z,1027.40